createdAt,value
2023-01-23T00:00:11.095Z,27.80
2023-01-23T00:01:11.098Z,28.00
2023-01-23T00:02:11.103Z,26.70
2023-01-23T00:03:11.039Z,27.70
2023-01-23T00:04:11.107Z,27.60
2023-01-23T00:05:11.035Z,26.70
2023-01-23T00:06:11.015Z,27.90
2023-01-23T00:07:11.037Z,26.50
2023-01-23T00:08:10.997Z,26.80
2023-01-23T00:09:11.061Z,26.50
2023-01-23T00:10:11.062Z,27.10
2023-01-23T00:11:11.015Z,25.30
2023-01-23T00:12:10.972Z,25.70
2023-01-23T00:13:11.017Z,27.10
2023-01-23T00:14:10.981Z,28.00
2023-01-23T00:15:10.977Z,26.60
2023-01-23T00:16:11.001Z,26.70
2023-01-23T00:17:10.915Z,26.70
2023-01-23T00:18:10.909Z,27.70
2023-01-23T00:19:10.938Z,27.70
2023-01-23T00:20:10.960Z,27.30
2023-01-23T00:21:10.912Z,27.20
2023-01-23T00:22:12.795Z,26.30
2023-01-23T00:23:10.888Z,25.90
2023-01-23T00:24:10.921Z,25.90
2023-01-23T00:25:10.880Z,25.40
2023-01-23T00:26:10.915Z,25.10
2023-01-23T00:27:11.856Z,27.30
2023-01-23T00:28:10.879Z,25.20
2023-01-23T00:29:10.869Z,27.80
2023-01-23T00:30:10.816Z,25.90
2023-01-23T00:31:10.919Z,26.10
2023-01-23T00:32:10.849Z,25.70
2023-01-23T00:33:10.803Z,28.50
2023-01-23T00:34:10.808Z,25.70
2023-01-23T00:35:10.813Z,24.90
2023-01-23T00:36:10.786Z,25.40
2023-01-23T00:37:10.765Z,25.00
2023-01-23T00:38:10.846Z,26.40
2023-01-23T00:39:10.759Z,26.50
2023-01-23T00:40:10.796Z,27.10
2023-01-23T00:41:10.778Z,25.10
2023-01-23T00:42:10.796Z,24.20
2023-01-23T00:43:10.757Z,25.70
2023-01-23T00:44:11.733Z,24.90
2023-01-23T00:45:10.737Z,25.10
2023-01-23T00:46:10.748Z,24.20
2023-01-23T00:47:10.694Z,23.20
2023-01-23T00:48:10.726Z,23.80
2023-01-23T00:49:10.691Z,23.70
2023-01-23T00:50:10.705Z,23.90
2023-01-23T00:51:10.673Z,23.20
2023-01-23T00:52:10.700Z,23.70
2023-01-23T00:53:10.687Z,26.20
2023-01-23T00:54:10.684Z,25.20
2023-01-23T00:55:10.745Z,26.60
2023-01-23T00:56:10.625Z,24.50
2023-01-23T00:57:10.609Z,25.90
2023-01-23T00:58:16.511Z,24.70
2023-01-23T00:59:11.666Z,25.60
2023-01-23T01:00:10.623Z,25.50
2023-01-23T01:01:10.566Z,23.50
2023-01-23T01:02:10.616Z,27.00
2023-01-23T01:03:10.662Z,26.30
2023-01-23T01:04:10.550Z,25.90
2023-01-23T01:05:10.570Z,25.80
2023-01-23T01:06:10.627Z,25.60
2023-01-23T01:07:10.545Z,24.90
2023-01-23T01:08:10.507Z,23.60
2023-01-23T01:09:10.550Z,24.20
2023-01-23T01:10:10.548Z,23.00
2023-01-23T01:11:10.637Z,22.70
2023-01-23T01:12:10.513Z,21.90
2023-01-23T01:13:10.509Z,21.70
2023-01-23T01:14:10.548Z,22.40
2023-01-23T01:15:10.559Z,22.50
2023-01-23T01:16:10.595Z,22.10
2023-01-23T01:17:10.549Z,21.40
2023-01-23T01:18:10.468Z,21.20
2023-01-23T01:19:10.461Z,20.80
2023-01-23T01:20:10.526Z,20.30
2023-01-23T01:21:10.600Z,20.50
2023-01-23T01:22:10.493Z,20.80
2023-01-23T01:23:10.480Z,19.70
2023-01-23T01:24:10.444Z,19.50
2023-01-23T01:25:10.455Z,19.20
2023-01-23T01:26:10.516Z,18.10
2023-01-23T01:27:10.527Z,18.10
2023-01-23T01:28:10.395Z,17.90
2023-01-23T01:29:10.541Z,18.40
2023-01-23T01:30:10.496Z,18.90
2023-01-23T01:31:10.596Z,19.30
2023-01-23T01:32:10.358Z,18.50
2023-01-23T01:33:10.383Z,18.50
2023-01-23T01:34:10.357Z,16.50
2023-01-23T01:35:10.425Z,17.40
2023-01-23T01:36:10.422Z,16.30
2023-01-23T01:37:10.342Z,15.20
2023-01-23T01:38:10.354Z,14.50
2023-01-23T01:39:10.545Z,14.60
2023-01-23T01:40:10.333Z,14.50
2023-01-23T01:41:10.300Z,14.70
2023-01-23T01:42:10.269Z,14.80
2023-01-23T01:43:10.428Z,13.90
2023-01-23T01:44:10.323Z,13.20
2023-01-23T01:45:10.280Z,12.30
2023-01-23T01:46:10.348Z,12.50
2023-01-23T01:47:10.388Z,12.70
2023-01-23T01:48:10.324Z,11.90
2023-01-23T01:49:10.274Z,12.60
2023-01-23T01:50:12.263Z,11.90
2023-01-23T01:51:11.249Z,11.50
2023-01-23T01:52:10.250Z,11.10
2023-01-23T01:53:10.252Z,11.90
2023-01-23T01:54:10.204Z,11.30
2023-01-23T01:55:10.193Z,11.00
2023-01-23T01:56:10.301Z,11.00
2023-01-23T01:57:10.183Z,11.70
2023-01-23T01:58:10.173Z,10.90
2023-01-23T01:59:10.321Z,10.40
2023-01-23T02:00:10.153Z,10.30
2023-01-23T02:01:10.267Z,11.70
2023-01-23T02:02:10.187Z,11.60
2023-01-23T02:03:10.224Z,11.00
2023-01-23T02:04:10.153Z,10.40
2023-01-23T02:05:10.186Z,11.60
2023-01-23T02:06:10.275Z,10.40
2023-01-23T02:07:10.144Z,10.30
2023-01-23T02:08:10.128Z,9.90
2023-01-23T02:09:10.185Z,11.20
2023-01-23T02:10:10.147Z,9.90
2023-01-23T02:11:10.075Z,10.30
2023-01-23T02:12:10.084Z,10.10
2023-01-23T02:13:10.046Z,10.80
2023-01-23T02:14:10.048Z,10.60
2023-01-23T02:15:10.037Z,10.80
2023-01-23T02:16:10.024Z,11.10
2023-01-23T02:17:10.043Z,11.40
2023-01-23T02:18:10.053Z,11.70
2023-01-23T02:19:10.098Z,12.80
2023-01-23T02:20:09.987Z,13.20
2023-01-23T02:21:10.071Z,13.10
2023-01-23T02:22:10.035Z,13.90
2023-01-23T02:23:10.011Z,13.20
2023-01-23T02:24:10.017Z,13.00
2023-01-23T02:25:09.928Z,13.70
2023-01-23T02:26:09.957Z,13.70
2023-01-23T02:27:09.938Z,15.90
2023-01-23T02:28:09.950Z,14.90
2023-01-23T02:29:10.068Z,15.10
2023-01-23T02:30:10.063Z,13.50
2023-01-23T02:31:09.927Z,15.90
2023-01-23T02:32:10.014Z,14.40
2023-01-23T02:33:09.881Z,14.80
2023-01-23T02:34:09.899Z,15.40
2023-01-23T02:35:09.929Z,16.30
2023-01-23T02:36:09.891Z,14.90
2023-01-23T02:37:09.964Z,14.30
2023-01-23T02:38:09.819Z,13.10
2023-01-23T02:39:09.847Z,12.20
2023-01-23T02:40:09.835Z,12.90
2023-01-23T02:41:09.818Z,12.80
2023-01-23T02:42:09.864Z,12.70
2023-01-23T02:43:09.824Z,12.70
2023-01-23T02:44:09.850Z,9.50
2023-01-23T02:45:09.770Z,16.00
2023-01-23T02:46:10.023Z,15.40
2023-01-23T02:47:09.938Z,13.10
2023-01-23T02:48:09.783Z,11.10
2023-01-23T02:49:09.744Z,10.40
2023-01-23T02:50:09.784Z,10.90
2023-01-23T02:51:09.901Z,10.60
2023-01-23T02:52:09.899Z,11.60
2023-01-23T02:53:09.750Z,11.70
2023-01-23T02:54:09.734Z,11.50
2023-01-23T02:55:09.705Z,11.30
2023-01-23T02:56:09.696Z,11.40
2023-01-23T02:57:09.769Z,11.70
2023-01-23T02:58:09.679Z,12.30
2023-01-23T02:59:09.720Z,14.10
2023-01-23T03:00:09.670Z,11.20
2023-01-23T03:01:09.797Z,12.60
2023-01-23T03:02:09.856Z,11.20
2023-01-23T03:03:09.722Z,10.30
2023-01-23T03:04:09.718Z,12.10
2023-01-23T03:05:09.733Z,9.40
2023-01-23T03:06:09.704Z,8.20
2023-01-23T03:07:09.691Z,7.40
2023-01-23T03:08:09.673Z,8.00
2023-01-23T03:09:09.627Z,7.60
2023-01-23T03:10:09.655Z,8.40
2023-01-23T03:11:09.607Z,8.20
2023-01-23T03:12:09.660Z,8.00
2023-01-23T03:13:09.715Z,8.20
2023-01-23T03:14:10.586Z,8.90
2023-01-23T03:15:09.570Z,8.50
2023-01-23T03:16:09.616Z,8.20
2023-01-23T03:17:09.599Z,8.40
2023-01-23T03:18:09.585Z,8.30
2023-01-23T03:19:09.570Z,9.30
2023-01-23T03:20:09.536Z,8.90
2023-01-23T03:21:09.529Z,10.10
2023-01-23T03:22:09.533Z,8.10
2023-01-23T03:23:09.631Z,8.70
2023-01-23T03:24:09.572Z,9.10
2023-01-23T03:25:09.575Z,8.30
2023-01-23T03:26:09.463Z,7.70
2023-01-23T03:27:09.472Z,8.60
2023-01-23T03:28:09.568Z,8.60
2023-01-23T03:29:09.486Z,8.50
2023-01-23T03:30:09.467Z,8.20
2023-01-23T03:31:09.502Z,8.50
2023-01-23T03:32:09.476Z,8.10
2023-01-23T03:33:09.519Z,12.10
2023-01-23T03:34:09.501Z,12.00
2023-01-23T03:35:09.544Z,11.40
2023-01-23T03:36:12.768Z,10.40
2023-01-23T03:37:09.423Z,10.20
2023-01-23T03:38:09.575Z,9.70
2023-01-23T03:39:09.474Z,8.40
2023-01-23T03:40:09.549Z,7.90
2023-01-23T03:41:09.459Z,7.80
2023-01-23T03:42:09.449Z,7.60
2023-01-23T03:43:09.346Z,8.20
2023-01-23T03:44:09.423Z,7.30
2023-01-23T03:45:09.344Z,7.30
2023-01-23T03:46:09.407Z,7.00
2023-01-23T03:47:09.324Z,8.10
2023-01-23T03:48:09.288Z,7.30
2023-01-23T03:49:09.421Z,7.30
2023-01-23T03:50:09.348Z,7.30
2023-01-23T03:51:09.312Z,8.20
2023-01-23T03:52:09.374Z,7.70
2023-01-23T03:53:09.403Z,8.70
2023-01-23T03:54:09.309Z,7.70
2023-01-23T03:55:09.391Z,8.40
2023-01-23T03:56:09.293Z,8.70
2023-01-23T03:57:09.292Z,9.50
2023-01-23T03:58:09.237Z,9.50
2023-01-23T03:59:09.298Z,8.90
2023-01-23T04:00:09.298Z,8.70
2023-01-23T04:01:09.321Z,10.40
2023-01-23T04:02:09.249Z,10.40
2023-01-23T04:03:09.279Z,9.60
2023-01-23T04:04:09.234Z,9.40
2023-01-23T04:05:09.235Z,9.50
2023-01-23T04:06:09.247Z,8.50
2023-01-23T04:07:09.225Z,10.20
2023-01-23T04:08:09.211Z,10.00
2023-01-23T04:09:09.178Z,9.40
2023-01-23T04:10:10.769Z,8.90
2023-01-23T04:11:09.236Z,9.50
2023-01-23T04:12:09.153Z,9.50
2023-01-23T04:13:09.145Z,9.70
2023-01-23T04:14:09.129Z,9.80
2023-01-23T04:15:09.144Z,9.00
2023-01-23T04:16:09.163Z,8.70
2023-01-23T04:17:09.075Z,8.90
2023-01-23T04:18:09.120Z,9.20
2023-01-23T04:19:09.149Z,8.80
2023-01-23T04:20:09.152Z,8.70
2023-01-23T04:21:09.078Z,10.10
2023-01-23T04:22:09.104Z,10.50
2023-01-23T04:23:09.071Z,11.30
2023-01-23T04:24:09.175Z,10.20
2023-01-23T04:25:09.083Z,9.80
2023-01-23T04:26:09.035Z,9.70
2023-01-23T04:27:09.148Z,9.70
2023-01-23T04:28:09.063Z,9.00
2023-01-23T04:29:09.133Z,9.30
2023-01-23T04:30:09.119Z,9.50
2023-01-23T04:31:09.061Z,10.10
2023-01-23T04:32:09.028Z,10.50
2023-01-23T04:33:09.041Z,10.10
2023-01-23T04:34:09.097Z,11.60
2023-01-23T04:35:09.058Z,12.20
2023-01-23T04:36:08.971Z,11.70
2023-01-23T04:37:09.487Z,13.50
2023-01-23T04:38:09.074Z,12.00
2023-01-23T04:39:09.033Z,12.70
2023-01-23T04:40:09.043Z,13.40
2023-01-23T04:41:08.988Z,12.80
2023-01-23T04:42:09.013Z,13.00
2023-01-23T04:43:08.976Z,13.30
2023-01-23T04:44:08.908Z,15.00
2023-01-23T04:45:08.912Z,13.70
2023-01-23T04:46:08.995Z,14.20
2023-01-23T04:47:41.618Z,14.20
2023-01-23T04:48:08.822Z,15.20
2023-01-23T04:49:08.817Z,15.30
2023-01-23T04:50:08.856Z,13.20
2023-01-23T04:51:08.863Z,14.10
2023-01-23T04:52:08.791Z,14.70
2023-01-23T04:53:08.793Z,16.10
2023-01-23T04:54:08.780Z,15.10
2023-01-23T04:55:08.793Z,13.40
2023-01-23T04:56:08.760Z,13.50
2023-01-23T04:57:08.757Z,12.80
2023-01-23T04:58:08.746Z,13.30
2023-01-23T04:59:08.808Z,12.00
2023-01-23T05:00:08.743Z,13.10
2023-01-23T05:01:08.809Z,13.60
2023-01-23T05:02:08.754Z,13.70
2023-01-23T05:03:08.705Z,14.10
2023-01-23T05:04:08.697Z,13.10
2023-01-23T05:05:08.689Z,12.70
2023-01-23T05:06:08.712Z,12.90
2023-01-23T05:07:08.678Z,13.00
2023-01-23T05:08:08.691Z,13.80
2023-01-23T05:09:08.686Z,13.90
2023-01-23T05:10:08.651Z,15.10
2023-01-23T05:11:08.677Z,16.40
2023-01-23T05:12:08.641Z,17.40
2023-01-23T05:13:08.632Z,15.50
2023-01-23T05:14:08.624Z,16.00
2023-01-23T05:15:08.689Z,16.30
2023-01-23T05:16:08.695Z,17.20
2023-01-23T05:17:08.602Z,16.80
2023-01-23T05:18:08.606Z,17.10
2023-01-23T05:19:08.616Z,18.10
2023-01-23T05:20:08.579Z,17.10
2023-01-23T05:21:08.599Z,18.00
2023-01-23T05:22:08.566Z,17.10
2023-01-23T05:23:08.552Z,16.80
2023-01-23T05:24:08.545Z,16.70
2023-01-23T05:25:08.543Z,16.80
2023-01-23T05:26:08.558Z,15.80
2023-01-23T05:27:08.527Z,17.20
2023-01-23T05:28:10.281Z,16.20
2023-01-23T05:29:08.506Z,17.60
2023-01-23T05:30:08.498Z,15.80
2023-01-23T05:31:08.684Z,15.50
2023-01-23T05:32:08.479Z,16.50
2023-01-23T05:33:08.470Z,15.40
2023-01-23T05:34:08.461Z,18.30
2023-01-23T05:35:08.456Z,17.30
2023-01-23T05:36:08.476Z,17.00
2023-01-23T05:37:08.481Z,16.60
2023-01-23T05:38:08.427Z,16.80
2023-01-23T05:39:08.431Z,16.90
2023-01-23T05:40:08.416Z,17.70
2023-01-23T05:41:08.446Z,15.80
2023-01-23T05:42:08.402Z,16.60
2023-01-23T05:43:08.397Z,17.20
2023-01-23T05:44:08.383Z,16.50
2023-01-23T05:45:08.379Z,17.70
2023-01-23T05:46:08.417Z,17.10
2023-01-23T05:47:08.472Z,16.70
2023-01-23T05:48:08.360Z,16.80
2023-01-23T05:49:08.351Z,16.50
2023-01-23T05:50:08.347Z,18.20
2023-01-23T05:51:08.399Z,18.00
2023-01-23T05:52:08.358Z,19.10
2023-01-23T05:53:08.325Z,19.40
2023-01-23T05:54:08.319Z,19.30
2023-01-23T05:55:08.311Z,19.90
2023-01-23T05:56:08.305Z,19.60
2023-01-23T05:57:08.318Z,18.50
2023-01-23T05:58:08.281Z,18.50
2023-01-23T05:59:08.277Z,18.80
2023-01-23T06:00:08.257Z,19.10
2023-01-23T06:01:09.261Z,18.50
2023-01-23T06:02:08.284Z,19.50
2023-01-23T06:03:08.312Z,18.10
2023-01-23T06:04:08.237Z,18.10
2023-01-23T06:05:08.231Z,17.50
2023-01-23T06:06:08.218Z,18.50
2023-01-23T06:07:08.240Z,19.00
2023-01-23T06:08:08.207Z,19.10
2023-01-23T06:09:08.192Z,18.40
2023-01-23T06:10:09.856Z,18.00
2023-01-23T06:11:09.176Z,19.00
2023-01-23T06:12:08.200Z,18.50
2023-01-23T06:13:08.160Z,17.60
2023-01-23T06:14:08.159Z,18.80
2023-01-23T06:15:08.141Z,19.70
2023-01-23T06:16:10.610Z,20.00
2023-01-23T06:17:09.155Z,20.50
2023-01-23T06:18:08.181Z,19.80
2023-01-23T06:19:08.186Z,21.10
2023-01-23T06:20:08.117Z,20.70
2023-01-23T06:21:08.126Z,20.90
2023-01-23T06:22:08.120Z,22.00
2023-01-23T06:23:08.083Z,21.80
2023-01-23T06:24:08.090Z,21.60
2023-01-23T06:25:08.068Z,22.60
2023-01-23T06:26:08.053Z,22.00
2023-01-23T06:27:08.050Z,23.70
2023-01-23T06:28:08.083Z,22.10
2023-01-23T06:29:08.036Z,22.80
2023-01-23T06:30:08.026Z,18.90
2023-01-23T06:31:08.085Z,21.40
2023-01-23T06:32:08.043Z,20.80
2023-01-23T06:33:08.005Z,21.80
2023-01-23T06:34:07.999Z,19.80
2023-01-23T06:35:07.996Z,21.10
2023-01-23T06:36:07.987Z,21.40
2023-01-23T06:37:07.973Z,22.10
2023-01-23T06:38:07.988Z,21.10
2023-01-23T06:39:07.960Z,21.90
2023-01-23T06:40:07.944Z,22.70
2023-01-23T06:41:07.945Z,23.10
2023-01-23T06:42:07.930Z,21.90
2023-01-23T06:43:07.957Z,22.20
2023-01-23T06:44:08.911Z,21.80
2023-01-23T06:45:07.916Z,23.40
2023-01-23T06:46:07.971Z,23.80
2023-01-23T06:47:07.887Z,22.60
2023-01-23T06:48:07.925Z,21.90
2023-01-23T06:49:07.874Z,22.80
2023-01-23T06:50:07.871Z,23.10
2023-01-23T06:51:07.979Z,21.00
2023-01-23T06:52:07.856Z,23.30
2023-01-23T06:53:07.887Z,23.00
2023-01-23T06:54:07.832Z,23.90
2023-01-23T06:55:07.828Z,22.70
2023-01-23T06:56:07.817Z,24.40
2023-01-23T06:57:07.814Z,25.20
2023-01-23T06:58:07.827Z,23.40
2023-01-23T06:59:07.793Z,24.20
2023-01-23T07:00:07.798Z,24.00
2023-01-23T07:01:07.780Z,24.70
2023-01-23T07:02:07.793Z,26.60
2023-01-23T07:03:07.834Z,24.50
2023-01-23T07:04:07.757Z,24.00
2023-01-23T07:05:07.750Z,25.70
2023-01-23T07:06:07.748Z,22.80
2023-01-23T07:07:07.820Z,24.40
2023-01-23T07:08:07.757Z,24.10
2023-01-23T07:09:07.722Z,26.00
2023-01-23T07:10:07.714Z,25.30
2023-01-23T07:11:07.711Z,24.20
2023-01-23T07:12:07.701Z,25.00
2023-01-23T07:13:07.730Z,22.90
2023-01-23T07:14:07.674Z,20.40
2023-01-23T07:15:07.722Z,21.50
2023-01-23T07:16:07.707Z,23.80
2023-01-23T07:17:07.639Z,24.30
2023-01-23T07:18:08.671Z,24.60
2023-01-23T07:19:07.639Z,21.70
2023-01-23T07:20:07.634Z,21.10
2023-01-23T07:21:07.628Z,23.40
2023-01-23T07:22:07.611Z,22.60
2023-01-23T07:23:07.712Z,22.70
2023-01-23T07:24:07.602Z,24.00
2023-01-23T07:25:07.607Z,23.60
2023-01-23T07:26:07.585Z,24.20
2023-01-23T07:27:07.578Z,24.50
2023-01-23T07:28:07.602Z,24.70
2023-01-23T07:29:07.564Z,22.80
2023-01-23T07:30:07.560Z,24.30
2023-01-23T07:31:07.732Z,22.20
2023-01-23T07:32:10.092Z,24.80
2023-01-23T07:33:07.549Z,23.00
2023-01-23T07:34:08.524Z,22.50
2023-01-23T07:35:07.512Z,22.40
2023-01-23T07:36:07.518Z,22.60
2023-01-23T07:37:07.502Z,24.80
2023-01-23T07:38:07.524Z,23.30
2023-01-23T07:39:07.566Z,26.50
2023-01-23T07:40:07.477Z,21.90
2023-01-23T07:41:07.464Z,21.10
2023-01-23T07:42:07.453Z,23.60
2023-01-23T07:43:07.487Z,21.50
2023-01-23T07:44:07.446Z,20.70
2023-01-23T07:45:07.434Z,20.90
2023-01-23T07:46:07.413Z,22.40
2023-01-23T07:47:08.419Z,23.90
2023-01-23T07:48:07.437Z,21.10
2023-01-23T07:49:07.398Z,21.90
2023-01-23T07:50:07.397Z,21.00
2023-01-23T07:51:07.502Z,21.00
2023-01-23T07:52:07.377Z,21.30
2023-01-23T07:53:07.396Z,22.40
2023-01-23T07:54:07.361Z,23.80
2023-01-23T07:55:07.422Z,20.80
2023-01-23T07:56:07.352Z,19.80
2023-01-23T07:57:07.339Z,19.50
2023-01-23T07:58:07.361Z,20.60
2023-01-23T07:59:07.321Z,22.40
2023-01-23T08:00:07.312Z,23.70
2023-01-23T08:01:07.353Z,23.40
2023-01-23T08:02:07.289Z,20.50
2023-01-23T08:03:07.316Z,21.40
2023-01-23T08:04:07.373Z,21.70
2023-01-23T08:05:07.274Z,22.20
2023-01-23T08:06:07.279Z,22.10
2023-01-23T08:07:07.255Z,20.80
2023-01-23T08:08:13.536Z,22.00
2023-01-23T08:09:09.255Z,22.30
2023-01-23T08:10:07.242Z,20.70
2023-01-23T08:11:07.311Z,20.90
2023-01-23T08:12:07.240Z,19.10
2023-01-23T08:13:07.256Z,21.20
2023-01-23T08:14:07.216Z,19.40
2023-01-23T08:15:07.199Z,20.20
2023-01-23T08:16:07.275Z,20.50
2023-01-23T08:17:07.199Z,20.60
2023-01-23T08:18:07.221Z,20.80
2023-01-23T08:19:07.184Z,20.30
2023-01-23T08:20:07.157Z,20.00
2023-01-23T08:21:07.157Z,20.00
2023-01-23T08:22:07.147Z,20.40
2023-01-23T08:23:07.167Z,20.30
2023-01-23T08:24:07.331Z,21.60
2023-01-23T08:25:07.124Z,21.60
2023-01-23T08:26:07.122Z,20.90
2023-01-23T08:27:07.188Z,21.10
2023-01-23T08:28:07.133Z,22.40
2023-01-23T08:29:07.104Z,21.60
2023-01-23T08:30:07.091Z,21.70
2023-01-23T08:31:07.140Z,21.30
2023-01-23T08:32:07.130Z,20.90
2023-01-23T08:33:07.107Z,21.40
2023-01-23T08:34:07.111Z,21.20
2023-01-23T08:35:07.060Z,22.40
2023-01-23T08:36:07.901Z,23.00
2023-01-23T08:37:07.035Z,20.80
2023-01-23T08:38:07.080Z,20.60
2023-01-23T08:39:07.028Z,21.40
2023-01-23T08:40:07.013Z,22.30
2023-01-23T08:41:07.011Z,22.40
2023-01-23T08:42:06.994Z,23.10
2023-01-23T08:43:07.026Z,21.90
2023-01-23T08:44:07.006Z,23.10
2023-01-23T08:45:06.977Z,23.30
2023-01-23T08:46:07.069Z,23.70
2023-01-23T08:47:06.964Z,22.60
2023-01-23T08:48:06.983Z,23.20
2023-01-23T08:49:06.955Z,22.50
2023-01-23T08:50:06.941Z,20.90
2023-01-23T08:51:06.981Z,21.50
2023-01-23T08:52:06.930Z,21.60
2023-01-23T08:53:06.945Z,22.60
2023-01-23T08:54:06.904Z,23.40
2023-01-23T08:55:06.905Z,23.30
2023-01-23T08:56:06.889Z,23.30
2023-01-23T08:57:06.885Z,23.70
2023-01-23T08:58:06.907Z,25.60
2023-01-23T08:59:06.991Z,26.10
2023-01-23T09:00:06.867Z,26.10
2023-01-23T09:01:06.908Z,25.50
2023-01-23T09:02:06.893Z,24.80
2023-01-23T09:03:06.868Z,23.80
2023-01-23T09:04:06.829Z,26.50
2023-01-23T09:05:06.826Z,25.90
2023-01-23T09:06:06.827Z,24.10
2023-01-23T09:07:06.814Z,24.10
2023-01-23T09:08:06.820Z,23.00
2023-01-23T09:09:07.797Z,23.60
2023-01-23T09:10:06.793Z,24.10
2023-01-23T09:11:06.784Z,26.80
2023-01-23T09:12:06.773Z,24.70
2023-01-23T09:13:06.791Z,28.80
2023-01-23T09:14:06.802Z,24.20
2023-01-23T09:15:06.832Z,26.00
2023-01-23T09:16:06.750Z,24.70
2023-01-23T09:17:06.731Z,25.70
2023-01-23T09:18:06.765Z,29.80
2023-01-23T09:19:06.725Z,25.50
2023-01-23T09:20:06.708Z,29.50
2023-01-23T09:21:08.677Z,26.80
2023-01-23T09:22:07.696Z,23.40
2023-01-23T09:23:06.715Z,25.20
2023-01-23T09:24:06.678Z,26.20
2023-01-23T09:25:06.678Z,25.90
2023-01-23T09:26:06.667Z,37.70
2023-01-23T09:27:06.650Z,30.40
2023-01-23T09:28:06.646Z,28.50
2023-01-23T09:29:06.653Z,28.40
2023-01-23T09:30:07.638Z,32.10
2023-01-23T09:31:06.777Z,31.60
2023-01-23T09:32:06.622Z,28.80
2023-01-23T09:33:06.605Z,29.20
2023-01-23T09:34:06.636Z,25.60
2023-01-23T09:35:06.643Z,23.80
2023-01-23T09:36:06.593Z,25.00
2023-01-23T09:37:06.567Z,24.10
2023-01-23T09:38:06.569Z,23.90
2023-01-23T09:39:06.589Z,24.40
2023-01-23T09:40:06.548Z,25.20
2023-01-23T09:41:06.544Z,24.20
2023-01-23T09:42:08.330Z,25.80
2023-01-23T09:43:07.534Z,26.50
2023-01-23T09:44:06.556Z,26.40
2023-01-23T09:45:06.523Z,35.40
2023-01-23T09:46:06.552Z,31.40
2023-01-23T09:47:06.575Z,34.50
2023-01-23T09:48:06.494Z,31.00
2023-01-23T09:49:06.516Z,28.80
2023-01-23T09:50:06.475Z,27.00
2023-01-23T09:51:06.503Z,26.20
2023-01-23T09:52:06.464Z,24.10
2023-01-23T09:53:06.455Z,24.60
2023-01-23T09:54:06.471Z,27.00
2023-01-23T09:55:06.438Z,25.90
2023-01-23T09:56:06.426Z,28.70
2023-01-23T09:57:06.427Z,26.60
2023-01-23T09:58:06.416Z,28.50
2023-01-23T09:59:06.441Z,24.80
2023-01-23T10:00:06.398Z,28.20
2023-01-23T10:01:06.421Z,26.30
2023-01-23T10:02:06.419Z,26.00
2023-01-23T10:03:06.389Z,25.40
2023-01-23T10:04:06.478Z,26.80
2023-01-23T10:05:06.367Z,26.50
2023-01-23T10:06:06.369Z,26.30
2023-01-23T10:07:06.344Z,27.10
2023-01-23T10:08:06.358Z,34.40
2023-01-23T10:09:06.361Z,22.90
2023-01-23T10:10:07.138Z,24.70
2023-01-23T10:11:07.319Z,26.00
2023-01-23T10:12:06.309Z,24.80
2023-01-23T10:13:06.300Z,30.00
2023-01-23T10:14:06.320Z,29.40
2023-01-23T10:15:06.351Z,25.60
2023-01-23T10:16:06.278Z,23.20
2023-01-23T10:17:06.311Z,24.00
2023-01-23T10:18:06.278Z,24.10
2023-01-23T10:19:06.362Z,24.20
2023-01-23T10:20:06.249Z,27.60
2023-01-23T10:21:06.238Z,27.10
2023-01-23T10:22:06.244Z,27.90
2023-01-23T10:23:06.240Z,27.50
2023-01-23T10:24:06.272Z,26.00
2023-01-23T10:25:06.217Z,27.40
2023-01-23T10:26:06.196Z,29.10
2023-01-23T10:27:06.191Z,29.20
2023-01-23T10:28:06.183Z,26.30
2023-01-23T10:29:06.199Z,26.20
2023-01-23T10:30:06.180Z,25.50
2023-01-23T10:31:06.249Z,25.90
2023-01-23T10:32:06.156Z,26.40
2023-01-23T10:33:06.143Z,35.00
2023-01-23T10:34:06.183Z,30.90
2023-01-23T10:35:06.207Z,24.50
2023-01-23T10:36:06.127Z,29.90
2023-01-23T10:37:06.115Z,25.90
2023-01-23T10:38:06.105Z,25.80
2023-01-23T10:39:06.123Z,22.50
2023-01-23T10:40:06.086Z,23.80
2023-01-23T10:41:06.083Z,24.00
2023-01-23T10:42:06.084Z,24.10
2023-01-23T10:43:06.079Z,24.50
2023-01-23T10:44:06.065Z,26.30
2023-01-23T10:45:06.081Z,21.90
2023-01-23T10:46:06.064Z,25.50
2023-01-23T10:47:42.761Z,24.80
2023-01-23T10:48:06.416Z,23.40
2023-01-23T10:49:07.031Z,24.70
2023-01-23T10:50:06.044Z,25.30
2023-01-23T10:51:06.159Z,22.40
2023-01-23T10:52:06.021Z,35.10
2023-01-23T10:53:06.026Z,22.40
2023-01-23T10:54:06.575Z,21.40
2023-01-23T10:55:07.007Z,36.30
2023-01-23T10:56:05.983Z,20.90
2023-01-23T10:57:05.962Z,26.60
2023-01-23T10:58:05.969Z,21.60
2023-01-23T10:59:05.947Z,22.00
2023-01-23T11:00:05.980Z,21.30
2023-01-23T11:01:05.979Z,22.30
2023-01-23T11:02:06.904Z,20.50
2023-01-23T11:03:07.023Z,20.80
2023-01-23T11:04:05.925Z,23.00
2023-01-23T11:05:05.956Z,43.90
2023-01-23T11:06:05.906Z,25.30
2023-01-23T11:07:06.022Z,22.40
2023-01-23T11:08:05.888Z,22.00
2023-01-23T11:09:05.866Z,23.20
2023-01-23T11:10:06.906Z,29.50
2023-01-23T11:11:05.875Z,22.30
2023-01-23T11:12:05.864Z,27.50
2023-01-23T11:13:05.866Z,33.80
2023-01-23T11:14:05.837Z,21.70
2023-01-23T11:15:05.869Z,26.10
2023-01-23T11:16:05.906Z,31.60
2023-01-23T11:17:05.830Z,32.50
2023-01-23T11:18:05.809Z,27.30
2023-01-23T11:19:05.813Z,27.30
2023-01-23T11:20:05.832Z,23.60
2023-01-23T11:21:05.814Z,26.00
2023-01-23T11:22:05.797Z,29.40
2023-01-23T11:23:05.862Z,27.60
2023-01-23T11:24:05.779Z,21.60
2023-01-23T11:25:05.817Z,22.10
2023-01-23T11:26:05.753Z,24.40
2023-01-23T11:27:05.752Z,22.00
2023-01-23T11:28:05.748Z,22.40
2023-01-23T11:29:05.750Z,25.00
2023-01-23T11:30:05.727Z,22.70
2023-01-23T11:31:14.033Z,25.10
2023-01-23T11:32:07.813Z,24.60
2023-01-23T11:33:05.709Z,22.80
2023-01-23T11:34:05.697Z,29.10
2023-01-23T11:35:07.333Z,26.60
2023-01-23T11:36:05.706Z,28.60
2023-01-23T11:37:05.669Z,23.20
2023-01-23T11:38:05.659Z,29.60
2023-01-23T11:39:06.732Z,24.40
2023-01-23T11:40:05.657Z,25.30
2023-01-23T11:41:05.675Z,24.10
2023-01-23T11:42:05.641Z,25.30
2023-01-23T11:43:05.636Z,26.80
2023-01-23T11:44:07.354Z,29.00
2023-01-23T11:45:05.614Z,25.80
2023-01-23T11:46:05.680Z,24.70
2023-01-23T11:47:05.593Z,28.30
2023-01-23T11:48:05.588Z,27.10
2023-01-23T11:49:05.579Z,26.20
2023-01-23T11:50:05.582Z,26.80
2023-01-23T11:51:05.650Z,27.60
2023-01-23T11:52:05.552Z,26.70
2023-01-23T11:53:05.577Z,26.30
2023-01-23T11:54:05.572Z,26.90
2023-01-23T11:55:05.611Z,25.80
2023-01-23T11:56:05.535Z,26.50
2023-01-23T11:57:05.549Z,25.50
2023-01-23T11:58:05.510Z,26.30
2023-01-23T11:59:05.532Z,24.80
2023-01-23T12:00:05.509Z,25.70
2023-01-23T12:01:05.502Z,25.70
2023-01-23T12:02:05.504Z,25.70
2023-01-23T12:03:05.556Z,26.90
2023-01-23T12:04:05.577Z,24.90
2023-01-23T12:05:05.462Z,26.20
2023-01-23T12:07:07.515Z,25.70
2023-01-23T12:08:05.433Z,26.40
2023-01-23T12:09:05.433Z,24.40
2023-01-23T12:10:05.417Z,26.10
2023-01-23T12:11:05.508Z,24.00
2023-01-23T12:12:05.421Z,23.40
2023-01-23T12:13:05.384Z,23.50
2023-01-23T12:14:05.385Z,22.90
2023-01-23T12:15:05.530Z,24.70
2023-01-23T12:16:11.261Z,26.40
2023-01-23T12:17:07.334Z,26.90
2023-01-23T12:18:06.903Z,24.50
2023-01-23T12:19:07.122Z,24.40
2023-01-23T12:20:06.193Z,22.50
2023-01-23T12:21:07.314Z,22.30
2023-01-23T12:22:08.125Z,22.50
2023-01-23T12:23:08.683Z,22.80
2023-01-23T12:24:08.689Z,21.30
2023-01-23T12:25:07.690Z,22.40
2023-01-23T12:26:06.692Z,22.10
2023-01-23T12:27:07.166Z,20.10
2023-01-23T12:28:06.958Z,20.80
2023-01-23T12:29:07.173Z,22.20
2023-01-23T12:30:06.120Z,22.20
2023-01-23T12:31:08.700Z,23.10
2023-01-23T12:32:07.289Z,22.20
2023-01-23T12:33:08.123Z,21.30
2023-01-23T12:34:07.123Z,22.40
2023-01-23T12:35:08.195Z,24.30
2023-01-23T12:36:06.823Z,22.20
2023-01-23T12:37:14.233Z,22.60
2023-01-23T12:38:09.631Z,23.00
2023-01-23T12:39:08.182Z,23.00
2023-01-23T12:40:08.455Z,22.80
2023-01-23T12:41:08.648Z,23.30
2023-01-23T12:42:07.687Z,22.90
2023-01-23T12:43:09.174Z,22.00
2023-01-23T12:44:08.213Z,23.20
2023-01-23T12:45:08.632Z,22.50
2023-01-23T12:46:07.704Z,23.50
2023-01-23T12:47:05.837Z,22.60
2023-01-23T12:48:07.630Z,23.30
2023-01-23T12:49:09.683Z,23.30
2023-01-23T12:50:10.196Z,22.40
2023-01-23T12:51:07.163Z,24.10
2023-01-23T12:52:07.831Z,22.50
2023-01-23T12:53:08.128Z,22.70
2023-01-23T12:54:08.174Z,22.50
2023-01-23T12:55:08.176Z,21.30
2023-01-23T12:56:09.206Z,20.90